This is the latest recevied weather packets stored in our database for station/object K6TTR. If no packets are shown the sender has not sent any weather packets the latest 10 day(s).
| Time | Temp. | Humidity | Pressure | Rain* | Wind** | Luminosity | Snow |
|---|---|---|---|---|---|---|---|
| 1777663129 | 19.44° C | 27% | 1018.8 hPa | 0 mm | - | 891 W/m² | - |
| 1777661926 | 19.44° C | 29% | 1019 hPa | 0 mm | - | 861 W/m² | - |
| 1777660726 | 19.44° C | 30% | 1019.3 hPa | 0 mm | - | 895 W/m² | - |
| 1777660114 | 18.89° C | 30% | 1019.3 hPa | 0 mm | - | 911 W/m² | - |
| 1777659817 | 18.89° C | 29% | 1019.3 hPa | 0 mm | - | 909 W/m² | - |
| 1777659521 | 18.33° C | 30% | 1019.3 hPa | 0 mm | - | 858 W/m² | - |
| 1777659228 | 18.33° C | 30% | 1019.3 hPa | 0 mm | - | 861 W/m² | - |
| 1777658913 | 18.33° C | 32% | 1019.3 hPa | 0 mm | - | 872 W/m² | - |
| 1777658617 | 18.33° C | 31% | 1019.4 hPa | 0 mm | - | 853 W/m² | - |
| 1777656535 | 17.22° C | 33% | 1019.4 hPa | 0 mm | - | 86 W/m² | - |
| 1777656215 | 16.67° C | 34% | 1019.5 hPa | 0 mm | - | 100 W/m² | - |
| 1777655919 | 16.67° C | 34% | 1019.5 hPa | 0 mm | - | 90 W/m² | - |
| 1777654713 | 16.11° C | 36% | 1019.6 hPa | 0 mm | - | 84 W/m² | - |
| 1777653823 | 15.56° C | 43% | 1019.7 hPa | 0 mm | - | 167 W/m² | - |
| 1777653527 | 15° C | 42% | 1019.6 hPa | 0 mm | - | 102 W/m² | - |
| 1777653212 | 15° C | 45% | 1019.9 hPa | 0 mm | - | 573 W/m² | - |
| 1777652916 | 14.44° C | 45% | 1019.9 hPa | 0 mm | - | 258 W/m² | - |
| 1777652619 | 13.89° C | 46% | 1019.9 hPa | 0 mm | - | 171 W/m² | - |
| 1777652322 | 13.33° C | 46% | 1020 hPa | 0 mm | - | 116 W/m² | - |
| 1777652026 | 12.78° C | 46% | 1020 hPa | 0 mm | - | 98 W/m² | - |
| 1777651729 | 12.78° C | 49% | 1020.1 hPa | 0 mm | - | 88 W/m² | - |
| 1777649925 | 9.44° C | 81% | 1020.1 hPa | 0 mm | - | 176 W/m² | - |
| 1777649628 | 8.89° C | 84% | 1020.1 hPa | 0 mm | - | 74 W/m² | - |
| 1777649329 | 8.33° C | 86% | 1020.1 hPa | 0 mm | - | 243 W/m² | - |
| 1777649030 | 7.78° C | 88% | 1020.2 hPa | 0 mm | - | 320 W/m² | - |
* Rain latest hour (hover to see other rain measurements)
** Current wind speed in m/s (hover to see current wind gust speed)